sensor_id;sensor_type;location;lat;lon;timestamp;pressure;altitude;pressure_sealevel;temperature;humidity
8641;BME280;4358;42.100;25.222;2024-01-25T00:02:17;100476.00;;;1.50;100.00
8641;BME280;4358;42.100;25.222;2024-01-25T00:04:44;100473.41;;;1.47;100.00
8641;BME280;4358;42.100;25.222;2024-01-25T00:07:11;100485.59;;;1.48;100.00
8641;BME280;4358;42.100;25.222;2024-01-25T00:09:40;100466.16;;;1.61;100.00
8641;BME280;4358;42.100;25.222;2024-01-25T00:12:07;100455.63;;;1.64;100.00
8641;BME280;4358;42.100;25.222;2024-01-25T00:14:33;100415.69;;;1.56;100.00
8641;BME280;4358;42.100;25.222;2024-01-25T00:17:00;100401.13;;;1.45;100.00
8641;BME280;4358;42.100;25.222;2024-01-25T00:19:27;100409.97;;;1.39;100.00
8641;BME280;4358;42.100;25.222;2024-01-25T00:21:53;100405.69;;;1.35;100.00
8641;BME280;4358;42.100;25.222;2024-01-25T00:24:20;100399.63;;;1.33;100.00
8641;BME280;4358;42.100;25.222;2024-01-25T00:26:48;100404.88;;;1.32;100.00
8641;BME280;4358;42.100;25.222;2024-01-25T00:29:14;100421.38;;;1.35;100.00
8641;BME280;4358;42.100;25.222;2024-01-25T00:31:41;100430.66;;;1.50;100.00
8641;BME280;4358;42.100;25.222;2024-01-25T00:34:09;100435.66;;;1.60;100.00
8641;BME280;4358;42.100;25.222;2024-01-25T00:36:36;100434.78;;;1.60;100.00
8641;BME280;4358;42.100;25.222;2024-01-25T00:39:04;100422.63;;;1.57;100.00
8641;BME280;4358;42.100;25.222;2024-01-25T00:41:32;100429.78;;;1.49;100.00
8641;BME280;4358;42.100;25.222;2024-01-25T00:44:00;100401.59;;;1.23;100.00
8641;BME280;4358;42.100;25.222;2024-01-25T00:46:28;100395.63;;;1.17;100.00
8641;BME280;4358;42.100;25.222;2024-01-25T00:48:55;100392.44;;;1.03;100.00
8641;BME280;4358;42.100;25.222;2024-01-25T00:51:22;100397.41;;;1.15;100.00
8641;BME280;4358;42.100;25.222;2024-01-25T00:53:49;100389.63;;;1.12;100.00
8641;BME280;4358;42.100;25.222;2024-01-25T00:56:17;100399.00;;;1.22;100.00
8641;BME280;4358;42.100;25.222;2024-01-25T00:58:44;100373.78;;;1.19;100.00
8641;BME280;4358;42.100;25.222;2024-01-25T01:01:13;100378.06;;;1.22;100.00
8641;BME280;4358;42.100;25.222;2024-01-25T01:03:40;100357.25;;;1.19;100.00
8641;BME280;4358;42.100;25.222;2024-01-25T01:06:08;100382.22;;;1.32;100.00
8641;BME280;4358;42.100;25.222;2024-01-25T01:08:35;100374.38;;;1.32;100.00
8641;BME280;4358;42.100;25.222;2024-01-25T01:11:02;100364.03;;;1.26;100.00
8641;BME280;4358;42.100;25.222;2024-01-25T01:13:29;100358.78;;;1.27;100.00
8641;BME280;4358;42.100;25.222;2024-01-25T01:15:56;100367.69;;;1.19;100.00
8641;BME280;4358;42.100;25.222;2024-01-25T01:18:24;100351.88;;;1.25;100.00
8641;BME280;4358;42.100;25.222;2024-01-25T01:20:51;100371.41;;;1.09;100.00
8641;BME280;4358;42.100;25.222;2024-01-25T01:23:17;100379.81;;;1.23;100.00
8641;BME280;4358;42.100;25.222;2024-01-25T01:25:44;100372.84;;;1.22;100.00
8641;BME280;4358;42.100;25.222;2024-01-25T01:28:11;100370.09;;;1.28;100.00
8641;BME280;4358;42.100;25.222;2024-01-25T01:30:38;100358.16;;;1.16;100.00
8641;BME280;4358;42.100;25.222;2024-01-25T01:33:07;100350.97;;;1.26;100.00
8641;BME280;4358;42.100;25.222;2024-01-25T01:35:35;100356.06;;;1.32;100.00
8641;BME280;4358;42.100;25.222;2024-01-25T01:38:02;100349.03;;;1.36;100.00
8641;BME280;4358;42.100;25.222;2024-01-25T01:40:29;100335.75;;;1.43;100.00
8641;BME280;4358;42.100;25.222;2024-01-25T01:42:59;100338.25;;;1.49;100.00
8641;BME280;4358;42.100;25.222;2024-01-25T01:45:26;100351.19;;;1.55;100.00
8641;BME280;4358;42.100;25.222;2024-01-25T01:47:54;100341.13;;;1.37;100.00
8641;BME280;4358;42.100;25.222;2024-01-25T01:50:21;100345.59;;;1.32;100.00
8641;BME280;4358;42.100;25.222;2024-01-25T01:52:50;100342.34;;;1.22;100.00
8641;BME280;4358;42.100;25.222;2024-01-25T01:55:17;100325.72;;;1.25;100.00
8641;BME280;4358;42.100;25.222;2024-01-25T01:57:44;100314.59;;;1.15;100.00
8641;BME280;4358;42.100;25.222;2024-01-25T02:00:14;100297.91;;;1.21;100.00
8641;BME280;4358;42.100;25.222;2024-01-25T02:02:42;100294.38;;;1.25;100.00
8641;BME280;4358;42.100;25.222;2024-01-25T02:05:09;100310.69;;;1.35;100.00
8641;BME280;4358;42.100;25.222;2024-01-25T02:07:37;100297.78;;;1.27;100.00
8641;BME280;4358;42.100;25.222;2024-01-25T02:10:08;100287.28;;;1.28;100.00
8641;BME280;4358;42.100;25.222;2024-01-25T02:12:35;100297.72;;;1.30;100.00
8641;BME280;4358;42.100;25.222;2024-01-25T02:15:02;100306.44;;;1.31;100.00
8641;BME280;4358;42.100;25.222;2024-01-25T02:17:30;100299.34;;;1.36;100.00
8641;BME280;4358;42.100;25.222;2024-01-25T02:19:57;100296.75;;;1.34;100.00
8641;BME280;4358;42.100;25.222;2024-01-25T02:22:25;100283.81;;;1.28;100.00
8641;BME280;4358;42.100;25.222;2024-01-25T02:24:52;100272.72;;;1.18;100.00
8641;BME280;4358;42.100;25.222;2024-01-25T02:27:18;100263.19;;;1.16;100.00
8641;BME280;4358;42.100;25.222;2024-01-25T02:29:45;100269.34;;;1.13;100.00
8641;BME280;4358;42.100;25.222;2024-01-25T02:32:12;100265.97;;;1.10;100.00
8641;BME280;4358;42.100;25.222;2024-01-25T02:34:39;100260.44;;;1.20;100.00
8641;BME280;4358;42.100;25.222;2024-01-25T02:37:06;100252.59;;;1.20;100.00
8641;BME280;4358;42.100;25.222;2024-01-25T02:39:34;100251.06;;;1.12;100.00
8641;BME280;4358;42.100;25.222;2024-01-25T02:42:00;100252.31;;;0.96;100.00
8641;BME280;4358;42.100;25.222;2024-01-25T02:44:27;100234.09;;;0.93;100.00
8641;BME280;4358;42.100;25.222;2024-01-25T02:46:54;100240.69;;;0.70;100.00
8641;BME280;4358;42.100;25.222;2024-01-25T02:49:21;100237.81;;;0.82;100.00
8641;BME280;4358;42.100;25.222;2024-01-25T02:51:49;100226.75;;;0.70;100.00
8641;BME280;4358;42.100;25.222;2024-01-25T02:54:16;100238.63;;;0.84;100.00
8641;BME280;4358;42.100;25.222;2024-01-25T02:56:45;100228.59;;;0.66;100.00
8641;BME280;4358;42.100;25.222;2024-01-25T02:59:11;100208.25;;;0.80;100.00
8641;BME280;4358;42.100;25.222;2024-01-25T03:01:40;100185.34;;;0.92;100.00
8641;BME280;4358;42.100;25.222;2024-01-25T03:04:07;100212.50;;;0.84;100.00
8641;BME280;4358;42.100;25.222;2024-01-25T03:06:34;100202.81;;;0.90;100.00
8641;BME280;4358;42.100;25.222;2024-01-25T03:09:01;100189.72;;;0.91;100.00
8641;BME280;4358;42.100;25.222;2024-01-25T03:11:30;100182.69;;;0.93;100.00
8641;BME280;4358;42.100;25.222;2024-01-25T03:13:58;100205.34;;;0.94;100.00
8641;BME280;4358;42.100;25.222;2024-01-25T03:16:25;100207.16;;;0.89;100.00
8641;BME280;4358;42.100;25.222;2024-01-25T03:18:51;100213.81;;;0.65;100.00
8641;BME280;4358;42.100;25.222;2024-01-25T03:21:18;100196.50;;;0.61;100.00
8641;BME280;4358;42.100;25.222;2024-01-25T03:23:45;100215.75;;;0.57;100.00
8641;BME280;4358;42.100;25.222;2024-01-25T03:26:12;100205.53;;;0.45;100.00
8641;BME280;4358;42.100;25.222;2024-01-25T03:28:38;100221.84;;;0.56;100.00
8641;BME280;4358;42.100;25.222;2024-01-25T03:31:07;100211.06;;;0.31;100.00
8641;BME280;4358;42.100;25.222;2024-01-25T03:33:34;100209.94;;;0.43;100.00
8641;BME280;4358;42.100;25.222;2024-01-25T03:36:01;100207.84;;;0.19;100.00
8641;BME280;4358;42.100;25.222;2024-01-25T03:38:29;100202.84;;;0.07;100.00
8641;BME280;4358;42.100;25.222;2024-01-25T03:40:55;100193.78;;;0.26;100.00
8641;BME280;4358;42.100;25.222;2024-01-25T03:43:24;100194.75;;;0.20;100.00
8641;BME280;4358;42.100;25.222;2024-01-25T03:45:51;100176.34;;;0.26;100.00
8641;BME280;4358;42.100;25.222;2024-01-25T03:48:19;100189.91;;;0.42;100.00
8641;BME280;4358;42.100;25.222;2024-01-25T03:50:47;100179.22;;;0.54;100.00
8641;BME280;4358;42.100;25.222;2024-01-25T03:53:14;100163.63;;;0.51;100.00
8641;BME280;4358;42.100;25.222;2024-01-25T03:55:41;100175.69;;;0.57;100.00
8641;BME280;4358;42.100;25.222;2024-01-25T03:58:08;100178.19;;;0.63;100.00
8641;BME280;4358;42.100;25.222;2024-01-25T04:00:35;100190.19;;;0.70;100.00
8641;BME280;4358;42.100;25.222;2024-01-25T04:03:02;100200.41;;;0.80;100.00
8641;BME280;4358;42.100;25.222;2024-01-25T04:05:30;100189.09;;;0.80;100.00
8641;BME280;4358;42.100;25.222;2024-01-25T04:07:56;100207.25;;;0.86;100.00
8641;BME280;4358;42.100;25.222;2024-01-25T04:10:23;100199.25;;;0.94;100.00
8641;BME280;4358;42.100;25.222;2024-01-25T04:12:51;100195.72;;;0.95;100.00
8641;BME280;4358;42.100;25.222;2024-01-25T04:15:18;100199.03;;;1.03;100.00
8641;BME280;4358;42.100;25.222;2024-01-25T04:17:44;100211.13;;;1.07;100.00
8641;BME280;4358;42.100;25.222;2024-01-25T04:20:11;100209.47;;;1.03;100.00
8641;BME280;4358;42.100;25.222;2024-01-25T04:22:40;100198.03;;;1.08;100.00
8641;BME280;4358;42.100;25.222;2024-01-25T04:25:07;100178.16;;;1.00;100.00
8641;BME280;4358;42.100;25.222;2024-01-25T04:27:36;100196.53;;;0.97;100.00
8641;BME280;4358;42.100;25.222;2024-01-25T04:30:03;100200.94;;;0.95;100.00
8641;BME280;4358;42.100;25.222;2024-01-25T04:32:30;100211.56;;;0.89;100.00
8641;BME280;4358;42.100;25.222;2024-01-25T04:34:57;100199.78;;;0.69;100.00
8641;BME280;4358;42.100;25.222;2024-01-25T04:37:24;100215.31;;;0.75;100.00
8641;BME280;4358;42.100;25.222;2024-01-25T04:39:52;100229.47;;;0.65;100.00
8641;BME280;4358;42.100;25.222;2024-01-25T04:42:19;100230.94;;;0.78;100.00
8641;BME280;4358;42.100;25.222;2024-01-25T04:44:46;100225.13;;;0.66;100.00
8641;BME280;4358;42.100;25.222;2024-01-25T04:47:12;100235.34;;;0.35;100.00
8641;BME280;4358;42.100;25.222;2024-01-25T04:49:40;100226.19;;;0.14;100.00
8641;BME280;4358;42.100;25.222;2024-01-25T04:52:07;100222.53;;;0.23;100.00
8641;BME280;4358;42.100;25.222;2024-01-25T04:54:33;100216.13;;;0.39;100.00
8641;BME280;4358;42.100;25.222;2024-01-25T04:57:02;100216.75;;;0.50;100.00
8641;BME280;4358;42.100;25.222;2024-01-25T04:59:31;100202.75;;;0.53;100.00
8641;BME280;4358;42.100;25.222;2024-01-25T05:01:58;100200.00;;;0.60;100.00
8641;BME280;4358;42.100;25.222;2024-01-25T05:04:25;100201.59;;;0.67;100.00
8641;BME280;4358;42.100;25.222;2024-01-25T05:06:53;100203.09;;;0.77;100.00
8641;BME280;4358;42.100;25.222;2024-01-25T05:09:20;100217.81;;;0.81;100.00
8641;BME280;4358;42.100;25.222;2024-01-25T05:11:46;100213.47;;;0.80;100.00
8641;BME280;4358;42.100;25.222;2024-01-25T05:14:15;100210.84;;;0.82;100.00
8641;BME280;4358;42.100;25.222;2024-01-25T05:16:41;100207.66;;;0.68;100.00
8641;BME280;4358;42.100;25.222;2024-01-25T05:19:08;100201.75;;;0.60;100.00
8641;BME280;4358;42.100;25.222;2024-01-25T05:21:35;100193.66;;;0.70;100.00
8641;BME280;4358;42.100;25.222;2024-01-25T05:24:02;100178.84;;;0.72;100.00
8641;BME280;4358;42.100;25.222;2024-01-25T05:26:29;100168.25;;;0.78;100.00
8641;BME280;4358;42.100;25.222;2024-01-25T05:28:55;100184.91;;;0.73;100.00
8641;BME280;4358;42.100;25.222;2024-01-25T05:31:23;100175.25;;;0.76;100.00
8641;BME280;4358;42.100;25.222;2024-01-25T05:33:50;100175.03;;;0.85;100.00
8641;BME280;4358;42.100;25.222;2024-01-25T05:36:17;100168.06;;;0.86;100.00
8641;BME280;4358;42.100;25.222;2024-01-25T05:38:44;100160.19;;;0.88;100.00
8641;BME280;4358;42.100;25.222;2024-01-25T05:41:10;100169.56;;;0.95;100.00
8641;BME280;4358;42.100;25.222;2024-01-25T05:43:38;100157.44;;;0.94;100.00
8641;BME280;4358;42.100;25.222;2024-01-25T05:46:04;100143.09;;;1.10;100.00
8641;BME280;4358;42.100;25.222;2024-01-25T05:48:32;100146.28;;;1.21;100.00
8641;BME280;4358;42.100;25.222;2024-01-25T05:50:59;100142.63;;;1.28;100.00
8641;BME280;4358;42.100;25.222;2024-01-25T05:53:26;100132.72;;;1.41;100.00
8641;BME280;4358;42.100;25.222;2024-01-25T05:55:53;100136.00;;;1.47;100.00
8641;BME280;4358;42.100;25.222;2024-01-25T05:58:19;100140.19;;;1.54;100.00
8641;BME280;4358;42.100;25.222;2024-01-25T06:00:46;100151.22;;;1.98;100.00
8641;BME280;4358;42.100;25.222;2024-01-25T06:03:13;100142.72;;;2.48;100.00
8641;BME280;4358;42.100;25.222;2024-01-25T06:05:41;100145.03;;;2.87;100.00
8641;BME280;4358;42.100;25.222;2024-01-25T06:08:08;100149.88;;;3.25;100.00
8641;BME280;4358;42.100;25.222;2024-01-25T06:10:34;100157.94;;;3.95;100.00
8641;BME280;4358;42.100;25.222;2024-01-25T06:13:01;100180.22;;;4.78;100.00
8641;BME280;4358;42.100;25.222;2024-01-25T06:15:28;100178.00;;;5.33;100.00
8641;BME280;4358;42.100;25.222;2024-01-25T06:17:55;100179.22;;;5.86;100.00
8641;BME280;4358;42.100;25.222;2024-01-25T06:20:22;100193.75;;;6.17;100.00
8641;BME280;4358;42.100;25.222;2024-01-25T06:22:50;100188.03;;;6.26;100.00
8641;BME280;4358;42.100;25.222;2024-01-25T06:25:16;100188.63;;;6.32;100.00
8641;BME280;4358;42.100;25.222;2024-01-25T06:27:43;100183.94;;;6.58;100.00
8641;BME280;4358;42.100;25.222;2024-01-25T06:30:11;100189.44;;;6.91;100.00
8641;BME280;4358;42.100;25.222;2024-01-25T06:32:38;100188.25;;;7.15;100.00
8641;BME280;4358;42.100;25.222;2024-01-25T06:35:05;100198.38;;;7.24;100.00
8641;BME280;4358;42.100;25.222;2024-01-25T06:37:32;100180.44;;;7.31;100.00
8641;BME280;4358;42.100;25.222;2024-01-25T06:40:00;100192.66;;;7.50;100.00
8641;BME280;4358;42.100;25.222;2024-01-25T06:42:28;100188.88;;;7.73;100.00
8641;BME280;4358;42.100;25.222;2024-01-25T06:44:54;100201.53;;;7.84;100.00
8641;BME280;4358;42.100;25.222;2024-01-25T06:47:21;100191.41;;;7.92;100.00
8641;BME280;4358;42.100;25.222;2024-01-25T06:49:48;100193.75;;;7.98;100.00
8641;BME280;4358;42.100;25.222;2024-01-25T06:52:17;100194.84;;;8.11;100.00
8641;BME280;4358;42.100;25.222;2024-01-25T06:54:44;100201.19;;;8.24;100.00
8641;BME280;4358;42.100;25.222;2024-01-25T06:57:12;100192.72;;;8.35;100.00
8641;BME280;4358;42.100;25.222;2024-01-25T06:59:40;100195.47;;;8.49;100.00
8641;BME280;4358;42.100;25.222;2024-01-25T07:02:07;100197.72;;;8.57;100.00
8641;BME280;4358;42.100;25.222;2024-01-25T07:04:33;100171.78;;;8.63;100.00
8641;BME280;4358;42.100;25.222;2024-01-25T07:07:00;100178.28;;;8.73;100.00
8641;BME280;4358;42.100;25.222;2024-01-25T07:09:28;100180.34;;;8.84;100.00
8641;BME280;4358;42.100;25.222;2024-01-25T07:11:54;100169.56;;;9.03;100.00
8641;BME280;4358;42.100;25.222;2024-01-25T07:14:22;100179.28;;;9.18;100.00
8641;BME280;4358;42.100;25.222;2024-01-25T07:16:49;100164.06;;;9.21;100.00
8641;BME280;4358;42.100;25.222;2024-01-25T07:19:17;100175.34;;;9.25;100.00
8641;BME280;4358;42.100;25.222;2024-01-25T07:21:43;100179.25;;;9.33;100.00
8641;BME280;4358;42.100;25.222;2024-01-25T07:24:11;100201.81;;;9.41;100.00
8641;BME280;4358;42.100;25.222;2024-01-25T07:26:38;100195.19;;;9.48;100.00
8641;BME280;4358;42.100;25.222;2024-01-25T07:29:05;100200.84;;;9.57;100.00
8641;BME280;4358;42.100;25.222;2024-01-25T07:31:33;100189.63;;;9.68;100.00
8641;BME280;4358;42.100;25.222;2024-01-25T07:34:00;100199.69;;;9.77;100.00
8641;BME280;4358;42.100;25.222;2024-01-25T07:36:27;100202.34;;;9.91;100.00
8641;BME280;4358;42.100;25.222;2024-01-25T07:38:53;100204.16;;;10.05;100.00
8641;BME280;4358;42.100;25.222;2024-01-25T07:41:20;100186.22;;;10.10;100.00
8641;BME280;4358;42.100;25.222;2024-01-25T07:43:47;100191.06;;;10.17;100.00
8641;BME280;4358;42.100;25.222;2024-01-25T07:46:14;100196.78;;;10.26;100.00
8641;BME280;4358;42.100;25.222;2024-01-25T07:48:42;100182.16;;;10.33;100.00
8641;BME280;4358;42.100;25.222;2024-01-25T07:51:12;100210.91;;;10.40;100.00
8641;BME280;4358;42.100;25.222;2024-01-25T07:53:39;100214.97;;;10.46;100.00
8641;BME280;4358;42.100;25.222;2024-01-25T07:56:07;100204.38;;;10.46;100.00
8641;BME280;4358;42.100;25.222;2024-01-25T07:58:35;100207.59;;;10.51;100.00
8641;BME280;4358;42.100;25.222;2024-01-25T08:01:03;100205.50;;;10.56;100.00
8641;BME280;4358;42.100;25.222;2024-01-25T08:03:31;100184.06;;;10.59;100.00
8641;BME280;4358;42.100;25.222;2024-01-25T08:05:59;100195.06;;;10.67;100.00
8641;BME280;4358;42.100;25.222;2024-01-25T08:08:26;100191.56;;;10.67;100.00
8641;BME280;4358;42.100;25.222;2024-01-25T08:10:53;100190.50;;;10.69;100.00
8641;BME280;4358;42.100;25.222;2024-01-25T08:13:20;100198.16;;;10.74;100.00
8641;BME280;4358;42.100;25.222;2024-01-25T08:15:46;100187.00;;;10.69;100.00
8641;BME280;4358;42.100;25.222;2024-01-25T08:18:13;100194.09;;;10.68;100.00
8641;BME280;4358;42.100;25.222;2024-01-25T08:20:40;100190.50;;;10.69;100.00
8641;BME280;4358;42.100;25.222;2024-01-25T08:23:08;100208.78;;;10.74;100.00
8641;BME280;4358;42.100;25.222;2024-01-25T08:25:35;100212.22;;;10.76;100.00
8641;BME280;4358;42.100;25.222;2024-01-25T08:28:02;100205.47;;;10.84;100.00
8641;BME280;4358;42.100;25.222;2024-01-25T08:30:28;100208.50;;;10.92;100.00
8641;BME280;4358;42.100;25.222;2024-01-25T08:32:55;100203.34;;;11.03;100.00
8641;BME280;4358;42.100;25.222;2024-01-25T08:35:22;100194.25;;;11.08;100.00
8641;BME280;4358;42.100;25.222;2024-01-25T08:37:49;100193.72;;;11.15;100.00
8641;BME280;4358;42.100;25.222;2024-01-25T08:40:17;100205.47;;;11.25;100.00
8641;BME280;4358;42.100;25.222;2024-01-25T08:42:44;100208.56;;;11.32;100.00
8641;BME280;4358;42.100;25.222;2024-01-25T08:45:11;100204.66;;;11.37;100.00
8641;BME280;4358;42.100;25.222;2024-01-25T08:47:38;100214.03;;;11.43;100.00
8641;BME280;4358;42.100;25.222;2024-01-25T08:50:06;100215.53;;;11.47;100.00
8641;BME280;4358;42.100;25.222;2024-01-25T08:52:35;100227.50;;;11.54;100.00
8641;BME280;4358;42.100;25.222;2024-01-25T08:55:03;100231.47;;;11.61;100.00
8641;BME280;4358;42.100;25.222;2024-01-25T08:57:31;100198.31;;;11.67;100.00
8641;BME280;4358;42.100;25.222;2024-01-25T08:59:58;100212.22;;;11.70;100.00
8641;BME280;4358;42.100;25.222;2024-01-25T09:02:26;100212.03;;;11.73;100.00
8641;BME280;4358;42.100;25.222;2024-01-25T09:04:55;100220.56;;;11.78;100.00
8641;BME280;4358;42.100;25.222;2024-01-25T09:07:22;100198.56;;;11.76;100.00
8641;BME280;4358;42.100;25.222;2024-01-25T09:09:48;100210.69;;;11.80;100.00
8641;BME280;4358;42.100;25.222;2024-01-25T09:12:15;100220.16;;;11.84;100.00
8641;BME280;4358;42.100;25.222;2024-01-25T09:14:43;100225.47;;;11.84;100.00
8641;BME280;4358;42.100;25.222;2024-01-25T09:17:10;100218.13;;;11.88;100.00
8641;BME280;4358;42.100;25.222;2024-01-25T09:19:39;100207.31;;;11.91;100.00
8641;BME280;4358;42.100;25.222;2024-01-25T09:22:06;100206.22;;;11.94;100.00
8641;BME280;4358;42.100;25.222;2024-01-25T09:24:35;100214.88;;;11.97;100.00
8641;BME280;4358;42.100;25.222;2024-01-25T09:27:05;100208.72;;;11.97;100.00
8641;BME280;4358;42.100;25.222;2024-01-25T09:29:32;100209.25;;;12.02;100.00
8641;BME280;4358;42.100;25.222;2024-01-25T09:32:00;100217.13;;;12.03;100.00
8641;BME280;4358;42.100;25.222;2024-01-25T09:34:27;100208.16;;;12.04;100.00
8641;BME280;4358;42.100;25.222;2024-01-25T09:36:54;100217.84;;;12.05;100.00
8641;BME280;4358;42.100;25.222;2024-01-25T09:39:21;100198.06;;;12.09;100.00
8641;BME280;4358;42.100;25.222;2024-01-25T09:41:48;100234.91;;;12.03;100.00
8641;BME280;4358;42.100;25.222;2024-01-25T09:44:14;100201.56;;;12.10;100.00
8641;BME280;4358;42.100;25.222;2024-01-25T09:46:43;100214.88;;;12.10;100.00
8641;BME280;4358;42.100;25.222;2024-01-25T09:49:12;100284.91;;;12.10;100.00
8641;BME280;4358;42.100;25.222;2024-01-25T09:51:41;100193.19;;;12.03;100.00
8641;BME280;4358;42.100;25.222;2024-01-25T09:54:09;100221.59;;;12.15;100.00
8641;BME280;4358;42.100;25.222;2024-01-25T09:56:36;100218.09;;;12.27;100.00
8641;BME280;4358;42.100;25.222;2024-01-25T09:59:03;100233.84;;;12.30;100.00
8641;BME280;4358;42.100;25.222;2024-01-25T10:01:30;100223.88;;;12.34;100.00
8641;BME280;4358;42.100;25.222;2024-01-25T10:03:58;100223.00;;;12.46;100.00
8641;BME280;4358;42.100;25.222;2024-01-25T10:06:27;100212.16;;;12.49;100.00
8641;BME280;4358;42.100;25.222;2024-01-25T10:08:53;100211.38;;;12.47;100.00
8641;BME280;4358;42.100;25.222;2024-01-25T10:11:22;100212.25;;;12.35;100.00
8641;BME280;4358;42.100;25.222;2024-01-25T10:13:50;100289.41;;;12.22;100.00
8641;BME280;4358;42.100;25.222;2024-01-25T10:16:18;100219.34;;;12.09;100.00
8641;BME280;4358;42.100;25.222;2024-01-25T10:18:46;100205.63;;;12.03;100.00
8641;BME280;4358;42.100;25.222;2024-01-25T10:21:14;100221.06;;;11.98;100.00
8641;BME280;4358;42.100;25.222;2024-01-25T10:23:45;100198.47;;;11.91;100.00
8641;BME280;4358;42.100;25.222;2024-01-25T10:26:12;100197.84;;;11.87;100.00
8641;BME280;4358;42.100;25.222;2024-01-25T10:28:39;100268.25;;;11.81;100.00
8641;BME280;4358;42.100;25.222;2024-01-25T10:31:06;100206.41;;;11.78;100.00
8641;BME280;4358;42.100;25.222;2024-01-25T10:33:34;100187.25;;;11.73;100.00
8641;BME280;4358;42.100;25.222;2024-01-25T10:36:03;100221.38;;;11.66;100.00
8641;BME280;4358;42.100;25.222;2024-01-25T10:38:31;100190.06;;;11.57;100.00
8641;BME280;4358;42.100;25.222;2024-01-25T10:41:00;100180.41;;;11.56;100.00
8641;BME280;4358;42.100;25.222;2024-01-25T10:43:27;100155.94;;;11.51;100.00
8641;BME280;4358;42.100;25.222;2024-01-25T10:45:56;100179.44;;;11.57;100.00
8641;BME280;4358;42.100;25.222;2024-01-25T10:48:24;100167.13;;;11.56;100.00
8641;BME280;4358;42.100;25.222;2024-01-25T10:50:51;100179.44;;;11.57;100.00
8641;BME280;4358;42.100;25.222;2024-01-25T10:53:18;100176.50;;;11.62;100.00
8641;BME280;4358;42.100;25.222;2024-01-25T10:55:45;100168.84;;;11.70;100.00
8641;BME280;4358;42.100;25.222;2024-01-25T10:58:14;100151.25;;;11.81;100.00
8641;BME280;4358;42.100;25.222;2024-01-25T11:00:50;100130.63;;;11.98;100.00
8641;BME280;4358;42.100;25.222;2024-01-25T11:03:18;100144.03;;;12.09;100.00
8641;BME280;4358;42.100;25.222;2024-01-25T11:05:45;100197.66;;;12.03;100.00
8641;BME280;4358;42.100;25.222;2024-01-25T11:08:18;100158.25;;;11.95;100.00
8641;BME280;4358;42.100;25.222;2024-01-25T11:10:48;100174.13;;;11.97;100.00
8641;BME280;4358;42.100;25.222;2024-01-25T11:13:23;100169.53;;;11.99;100.00
8641;BME280;4358;42.100;25.222;2024-01-25T11:15:50;100156.34;;;12.10;100.00
8641;BME280;4358;42.100;25.222;2024-01-25T11:18:17;100174.03;;;12.23;100.00
8641;BME280;4358;42.100;25.222;2024-01-25T11:20:47;100149.00;;;12.26;100.00
8641;BME280;4358;42.100;25.222;2024-01-25T11:23:15;100154.75;;;12.20;98.67
8641;BME280;4358;42.100;25.222;2024-01-25T11:25:45;100175.50;;;12.15;98.18
8641;BME280;4358;42.100;25.222;2024-01-25T11:28:14;100201.81;;;12.07;97.76
8641;BME280;4358;42.100;25.222;2024-01-25T11:30:43;100159.25;;;12.07;97.67
8641;BME280;4358;42.100;25.222;2024-01-25T11:33:10;100161.91;;;12.19;99.39
8641;BME280;4358;42.100;25.222;2024-01-25T11:35:39;100146.16;;;12.29;99.24
8641;BME280;4358;42.100;25.222;2024-01-25T11:38:07;100153.16;;;12.30;97.11
8641;BME280;4358;42.100;25.222;2024-01-25T11:40:34;100149.53;;;12.31;97.96
8641;BME280;4358;42.100;25.222;2024-01-25T11:43:01;100178.50;;;12.23;97.76
8641;BME280;4358;42.100;25.222;2024-01-25T11:45:28;100142.09;;;12.11;99.45
8641;BME280;4358;42.100;25.222;2024-01-25T11:47:56;100157.22;;;11.98;98.69
8641;BME280;4358;42.100;25.222;2024-01-25T11:50:23;100146.91;;;11.93;99.33
8641;BME280;4358;42.100;25.222;2024-01-25T11:52:50;100156.38;;;11.97;98.47
8641;BME280;4358;42.100;25.222;2024-01-25T11:55:17;100162.97;;;12.17;99.29
8641;BME280;4358;42.100;25.222;2024-01-25T11:57:45;100206.16;;;12.46;96.05
8641;BME280;4358;42.100;25.222;2024-01-25T12:00:14;100170.59;;;12.59;94.46
8641;BME280;4358;42.100;25.222;2024-01-25T12:02:42;100155.78;;;12.68;95.67
8641;BME280;4358;42.100;25.222;2024-01-25T12:05:11;100157.31;;;12.83;96.55
8641;BME280;4358;42.100;25.222;2024-01-25T12:07:39;100177.16;;;12.92;93.91
8641;BME280;4358;42.100;25.222;2024-01-25T12:10:08;100172.97;;;12.88;92.47
8641;BME280;4358;42.100;25.222;2024-01-25T12:12:36;100157.75;;;12.90;94.78
8641;BME280;4358;42.100;25.222;2024-01-25T12:15:05;100183.06;;;13.08;95.28
8641;BME280;4358;42.100;25.222;2024-01-25T12:17:33;100173.47;;;13.05;93.76
8641;BME280;4358;42.100;25.222;2024-01-25T12:20:02;100186.09;;;12.91;91.12
8641;BME280;4358;42.100;25.222;2024-01-25T12:22:34;100180.75;;;12.91;93.61
8641;BME280;4358;42.100;25.222;2024-01-25T12:25:01;100170.09;;;12.91;94.20
8641;BME280;4358;42.100;25.222;2024-01-25T12:27:29;100165.19;;;12.97;96.15
8641;BME280;4358;42.100;25.222;2024-01-25T12:29:58;100190.16;;;12.84;94.53
8641;BME280;4358;42.100;25.222;2024-01-25T12:32:25;100178.69;;;12.70;95.01
8641;BME280;4358;42.100;25.222;2024-01-25T12:34:54;100170.81;;;12.56;96.79
8641;BME280;4358;42.100;25.222;2024-01-25T12:37:21;100168.91;;;12.46;96.72
8641;BME280;4358;42.100;25.222;2024-01-25T12:39:52;100166.78;;;12.38;97.26
8641;BME280;4358;42.100;25.222;2024-01-25T12:42:19;100171.06;;;12.28;98.15
8641;BME280;4358;42.100;25.222;2024-01-25T12:44:47;100179.03;;;12.15;98.07
8641;BME280;4358;42.100;25.222;2024-01-25T12:47:14;100183.09;;;12.08;98.50
8641;BME280;4358;42.100;25.222;2024-01-25T12:49:41;100162.72;;;11.95;98.77
8641;BME280;4358;42.100;25.222;2024-01-25T12:52:08;100186.25;;;12.01;99.75
8641;BME280;4358;42.100;25.222;2024-01-25T12:54:35;100167.00;;;11.97;99.21
8641;BME280;4358;42.100;25.222;2024-01-25T12:57:05;100170.53;;;11.98;99.04
8641;BME280;4358;42.100;25.222;2024-01-25T12:59:32;100181.16;;;11.98;99.49